createdAt,value
2022-08-26T00:00:01.025Z,90.78
2022-08-26T00:01:01.034Z,90.78
2022-08-26T00:02:01.053Z,90.67
2022-08-26T00:03:01.040Z,90.58
2022-08-26T00:04:01.013Z,90.98
2022-08-26T00:05:00.965Z,90.67
2022-08-26T00:06:00.957Z,90.58
2022-08-26T00:07:00.947Z,90.67
2022-08-26T00:08:00.928Z,90.48
2022-08-26T00:09:00.916Z,90.82
2022-08-26T00:10:00.908Z,90.92
2022-08-26T00:11:00.945Z,90.82
2022-08-26T00:12:00.879Z,91.02
2022-08-26T00:13:00.929Z,91.22
2022-08-26T00:14:00.853Z,91.32
2022-08-26T00:15:00.835Z,91.22
2022-08-26T00:16:00.828Z,91.32
2022-08-26T00:17:00.829Z,91.42
2022-08-26T00:18:00.819Z,91.32
2022-08-26T00:19:00.793Z,91.22
2022-08-26T00:20:00.777Z,91.22
2022-08-26T00:21:00.776Z,91.22
2022-08-26T00:22:01.737Z,91.22
2022-08-26T00:23:00.748Z,91.22
2022-08-26T00:24:00.720Z,91.52
2022-08-26T00:25:00.699Z,91.52
2022-08-26T00:26:00.696Z,91.62
2022-08-26T00:27:00.669Z,91.62
2022-08-26T00:28:00.669Z,91.62
2022-08-26T00:29:00.669Z,91.52
2022-08-26T00:30:00.651Z,91.52
2022-08-26T00:31:00.631Z,91.52
2022-08-26T00:32:00.646Z,91.32
2022-08-26T00:33:00.608Z,91.42
2022-08-26T00:34:00.601Z,91.62
2022-08-26T00:35:00.574Z,91.52
2022-08-26T00:36:00.572Z,91.52
2022-08-26T00:37:00.563Z,91.62
2022-08-26T00:38:00.531Z,92.02
2022-08-26T00:39:00.531Z,91.97
2022-08-26T00:40:00.823Z,91.86
2022-08-26T00:41:00.513Z,91.97
2022-08-26T00:42:00.490Z,92.07
2022-08-26T00:43:00.583Z,91.97
2022-08-26T00:44:00.461Z,91.97
2022-08-26T00:45:00.432Z,92.27
2022-08-26T00:46:00.547Z,92.36
2022-08-26T00:47:00.423Z,92.36
2022-08-26T00:48:00.413Z,92.36
2022-08-26T00:49:00.436Z,92.27
2022-08-26T00:50:00.392Z,92.07
2022-08-26T00:51:00.364Z,92.16
2022-08-26T00:52:00.354Z,92.27
2022-08-26T00:53:00.447Z,92.57
2022-08-26T00:54:00.333Z,92.67
2022-08-26T00:55:00.315Z,92.77
2022-08-26T00:56:00.313Z,92.67
2022-08-26T00:57:00.360Z,92.57
2022-08-26T00:58:00.291Z,92.36
2022-08-26T00:59:00.274Z,92.57
2022-08-26T01:00:00.254Z,92.47
2022-08-26T01:01:00.287Z,92.57
2022-08-26T01:02:00.332Z,92.57
2022-08-26T01:03:00.197Z,92.67
2022-08-26T01:04:00.348Z,92.86
2022-08-26T01:05:00.180Z,92.77
2022-08-26T01:06:00.188Z,92.97
2022-08-26T01:07:00.154Z,92.86
2022-08-26T01:08:00.137Z,92.97
2022-08-26T01:09:00.130Z,92.86
2022-08-26T01:10:00.138Z,92.77
2022-08-26T01:11:00.094Z,92.77
2022-08-26T01:12:00.112Z,92.77
2022-08-26T01:13:00.066Z,92.67
2022-08-26T01:14:00.065Z,92.67
2022-08-26T01:15:00.043Z,92.77
2022-08-26T01:16:00.080Z,92.67
2022-08-26T01:17:00.015Z,92.86
2022-08-26T01:18:00.017Z,92.81
2022-08-26T01:18:59.988Z,93.01
2022-08-26T01:19:59.979Z,92.91
2022-08-26T01:21:00.021Z,93.11
2022-08-26T01:21:59.949Z,93.01
2022-08-26T01:23:01.597Z,93.01
2022-08-26T01:23:59.973Z,92.91
2022-08-26T01:24:59.919Z,93.01
2022-08-26T01:25:59.937Z,93.01
2022-08-26T01:26:59.880Z,93.01
2022-08-26T01:27:59.869Z,93.11
2022-08-26T01:28:59.856Z,93.11
2022-08-26T01:29:59.898Z,93.21
2022-08-26T01:30:59.827Z,93.11
2022-08-26T01:31:59.839Z,93.31
2022-08-26T01:32:59.809Z,93.51
2022-08-26T01:33:59.809Z,93.41
2022-08-26T01:34:59.791Z,93.41
2022-08-26T01:35:59.780Z,93.31
2022-08-26T01:36:59.759Z,93.27
2022-08-26T01:37:59.749Z,93.27
2022-08-26T01:38:59.742Z,93.37
2022-08-26T01:39:59.762Z,93.47
2022-08-26T01:40:59.722Z,93.37
2022-08-26T01:42:02.953Z,93.17
2022-08-26T01:42:59.672Z,93.37
2022-08-26T01:43:59.650Z,93.27
2022-08-26T01:44:59.683Z,93.17
2022-08-26T01:45:59.771Z,92.97
2022-08-26T01:46:59.630Z,93.07
2022-08-26T01:47:59.600Z,93.11
2022-08-26T01:48:59.598Z,93.21
2022-08-26T01:49:59.584Z,93.31
2022-08-26T01:50:59.575Z,93.41
2022-08-26T01:51:59.584Z,93.62
2022-08-26T01:52:59.564Z,93.71
2022-08-26T01:53:59.563Z,93.71
2022-08-26T01:54:59.521Z,93.62
2022-08-26T01:55:59.504Z,93.71
2022-08-26T01:56:59.496Z,93.71
2022-08-26T01:57:59.474Z,93.71
2022-08-26T01:58:59.481Z,93.81
2022-08-26T01:59:59.467Z,93.91
2022-08-26T02:00:59.550Z,94.01
2022-08-26T02:01:59.423Z,94.01
2022-08-26T02:02:59.413Z,94.01
2022-08-26T02:03:59.412Z,94.01
2022-08-26T02:04:59.440Z,93.91
2022-08-26T02:05:59.375Z,94.01
2022-08-26T02:06:59.366Z,94.01
2022-08-26T02:07:59.346Z,94.21
2022-08-26T02:08:59.336Z,94.31
2022-08-26T02:09:59.338Z,94.31
2022-08-26T02:10:59.355Z,94.42
2022-08-26T02:11:59.287Z,94.31
2022-08-26T02:12:59.295Z,94.46
2022-08-26T02:13:59.264Z,94.56
2022-08-26T02:14:59.256Z,94.42
2022-08-26T02:15:59.274Z,94.31
2022-08-26T02:16:59.235Z,94.42
2022-08-26T02:17:59.205Z,94.51
2022-08-26T02:18:59.203Z,94.62
2022-08-26T02:19:59.208Z,94.71
2022-08-26T02:20:59.173Z,94.62
2022-08-26T02:21:59.168Z,94.62
2022-08-26T02:22:59.149Z,94.71
2022-08-26T02:23:59.136Z,94.62
2022-08-26T02:24:59.118Z,94.42
2022-08-26T02:25:59.097Z,94.56
2022-08-26T02:26:59.107Z,94.71
2022-08-26T02:27:59.073Z,94.66
2022-08-26T02:28:59.068Z,94.76
2022-08-26T02:29:59.059Z,94.76
2022-08-26T02:30:59.051Z,94.96
2022-08-26T02:31:59.030Z,94.96
2022-08-26T02:32:59.029Z,94.86
2022-08-26T02:33:59.000Z,94.76
2022-08-26T02:34:58.990Z,94.76
2022-08-26T02:35:58.970Z,94.76
2022-08-26T02:36:58.983Z,94.76
2022-08-26T02:37:58.968Z,94.66
2022-08-26T02:38:58.947Z,94.66
2022-08-26T02:39:58.960Z,94.76
2022-08-26T02:40:58.908Z,94.76
2022-08-26T02:41:58.889Z,94.76
2022-08-26T02:42:58.878Z,94.86
2022-08-26T02:43:58.879Z,94.96
2022-08-26T02:44:58.850Z,95.06
2022-08-26T02:46:00.094Z,95.06
2022-08-26T02:46:58.862Z,95.06
2022-08-26T02:47:59.682Z,95.01
2022-08-26T02:48:58.811Z,95.26
2022-08-26T02:49:58.803Z,95.41
2022-08-26T02:50:58.788Z,95.51
2022-08-26T02:51:58.769Z,95.61
2022-08-26T02:52:58.752Z,95.71
2022-08-26T02:53:58.730Z,95.81
2022-08-26T02:54:58.730Z,95.91
2022-08-26T02:55:58.710Z,95.91
2022-08-26T02:56:58.694Z,96.01
2022-08-26T02:57:58.682Z,96.11
2022-08-26T02:58:58.672Z,96.21
2022-08-26T02:59:58.662Z,96.21
2022-08-26T03:00:58.681Z,96.21
2022-08-26T03:01:58.664Z,96.21
2022-08-26T03:02:58.623Z,96.01
2022-08-26T03:03:58.603Z,95.71
2022-08-26T03:05:01.889Z,95.61
2022-08-26T03:05:58.583Z,95.61
2022-08-26T03:06:58.565Z,95.71
2022-08-26T03:07:58.553Z,95.81
2022-08-26T03:08:58.542Z,95.81
2022-08-26T03:09:58.540Z,95.71
2022-08-26T03:10:58.514Z,95.71
2022-08-26T03:11:58.495Z,95.71
2022-08-26T03:12:58.503Z,95.61
2022-08-26T03:13:58.464Z,95.61
2022-08-26T03:14:58.478Z,95.61
2022-08-26T03:15:58.485Z,95.61
2022-08-26T03:16:58.434Z,95.71
2022-08-26T03:17:58.416Z,95.61
2022-08-26T03:18:58.406Z,95.71
2022-08-26T03:19:58.396Z,95.71
2022-08-26T03:20:58.406Z,95.71
2022-08-26T03:21:58.377Z,95.81
2022-08-26T03:22:58.357Z,95.91
2022-08-26T03:23:58.730Z,96.01
2022-08-26T03:24:58.330Z,96.11
2022-08-26T03:25:58.317Z,96.11
2022-08-26T03:26:58.315Z,96.11
2022-08-26T03:27:59.508Z,96.11
2022-08-26T03:28:58.275Z,96.01
2022-08-26T03:30:05.297Z,96.01
2022-08-26T03:30:58.982Z,96.01
2022-08-26T03:31:58.241Z,96.21
2022-08-26T03:32:58.232Z,96.31
2022-08-26T03:33:59.542Z,96.61
2022-08-26T03:34:58.212Z,96.71
2022-08-26T03:35:58.222Z,96.91
2022-08-26T03:36:58.192Z,96.91
2022-08-26T03:37:58.213Z,97.02
2022-08-26T03:38:58.163Z,96.91
2022-08-26T03:39:58.204Z,96.81
2022-08-26T03:40:58.132Z,96.91
2022-08-26T03:41:58.129Z,96.81
2022-08-26T03:42:58.109Z,96.61
2022-08-26T03:44:01.524Z,96.51
2022-08-26T03:44:58.088Z,96.51
2022-08-26T03:45:58.066Z,96.51
2022-08-26T03:46:58.056Z,96.66
2022-08-26T03:47:58.034Z,96.76
2022-08-26T03:48:58.035Z,96.96
2022-08-26T03:49:58.026Z,97.16
2022-08-26T03:50:58.004Z,97.26
2022-08-26T03:51:57.983Z,97.26
2022-08-26T03:52:57.966Z,97.26
2022-08-26T03:53:57.966Z,97.26
2022-08-26T03:54:57.953Z,97.36
2022-08-26T03:55:57.946Z,97.36
2022-08-26T03:56:57.928Z,97.26
2022-08-26T03:57:57.905Z,97.36
2022-08-26T03:58:57.898Z,97.26
2022-08-26T03:59:57.891Z,97.36
2022-08-26T04:00:57.878Z,97.26
2022-08-26T04:01:57.878Z,97.16
2022-08-26T04:02:57.963Z,97.16
2022-08-26T04:03:59.965Z,97.26
2022-08-26T04:04:57.817Z,97.46
2022-08-26T04:05:57.789Z,97.56
2022-08-26T04:06:57.806Z,97.56
2022-08-26T04:07:57.768Z,97.56
2022-08-26T04:08:57.818Z,97.56
2022-08-26T04:09:57.746Z,97.46
2022-08-26T04:10:57.751Z,97.46
2022-08-26T04:11:57.719Z,97.66
2022-08-26T04:12:58.943Z,97.66
2022-08-26T04:13:57.790Z,97.56
2022-08-26T04:14:57.701Z,97.56
2022-08-26T04:15:57.730Z,97.66
2022-08-26T04:16:57.695Z,97.66
2022-08-26T04:17:57.752Z,97.76
2022-08-26T04:18:57.661Z,97.76
2022-08-26T04:19:57.610Z,97.76
2022-08-26T04:20:57.610Z,97.76
2022-08-26T04:21:57.587Z,97.56
2022-08-26T04:22:57.620Z,97.56
2022-08-26T04:23:58.303Z,97.46
2022-08-26T04:24:57.592Z,97.46
2022-08-26T04:25:57.553Z,97.46
2022-08-26T04:26:57.530Z,97.41
2022-08-26T04:27:57.523Z,97.41
2022-08-26T04:28:57.504Z,97.36
2022-08-26T04:29:57.512Z,97.36
2022-08-26T04:30:57.544Z,97.46
2022-08-26T04:31:57.474Z,97.56
2022-08-26T04:32:57.549Z,97.66
2022-08-26T04:33:57.430Z,97.66
2022-08-26T04:34:57.421Z,97.66
2022-08-26T04:35:57.423Z,97.66
2022-08-26T04:36:57.443Z,97.66
2022-08-26T04:37:57.408Z,97.46
2022-08-26T04:38:57.380Z,97.36
2022-08-26T04:39:57.529Z,97.26
2022-08-26T04:40:57.372Z,97.26
2022-08-26T04:41:57.795Z,97.16
2022-08-26T04:42:57.324Z,97.06
2022-08-26T04:43:57.301Z,96.91
2022-08-26T04:44:57.295Z,96.81
2022-08-26T04:45:57.313Z,96.81
2022-08-26T04:46:57.285Z,96.71
2022-08-26T04:47:57.276Z,96.71
2022-08-26T04:48:57.244Z,96.61
2022-08-26T04:49:57.224Z,96.51
2022-08-26T04:50:57.219Z,96.51
2022-08-26T04:51:57.220Z,96.51
2022-08-26T04:52:57.254Z,96.61
2022-08-26T04:53:57.283Z,96.51
2022-08-26T04:54:57.163Z,96.71
2022-08-26T04:55:57.147Z,96.77
2022-08-26T04:56:57.136Z,96.67
2022-08-26T04:57:57.117Z,96.56
2022-08-26T04:58:57.141Z,96.56
2022-08-26T04:59:57.089Z,96.56
2022-08-26T05:00:57.083Z,96.47
2022-08-26T05:01:57.097Z,96.36
2022-08-26T05:02:57.056Z,96.26
2022-08-26T05:03:57.069Z,96.17
2022-08-26T05:04:57.037Z,96.02
2022-08-26T05:05:57.014Z,95.92
2022-08-26T05:06:59.837Z,95.92
2022-08-26T05:07:57.998Z,96.02
2022-08-26T05:08:56.996Z,95.92
2022-08-26T05:09:56.969Z,95.92
2022-08-26T05:10:56.960Z,95.72
2022-08-26T05:11:56.949Z,95.72
2022-08-26T05:12:56.929Z,95.62
2022-08-26T05:14:00.337Z,95.62
2022-08-26T05:14:57.918Z,95.62
2022-08-26T05:16:01.313Z,95.67
2022-08-26T05:16:56.878Z,95.67
2022-08-26T05:17:56.848Z,95.77
2022-08-26T05:18:56.860Z,95.67
2022-08-26T05:19:56.827Z,95.77
2022-08-26T05:20:56.810Z,95.67
2022-08-26T05:21:56.801Z,95.57
2022-08-26T05:22:56.833Z,95.43
2022-08-26T05:23:56.790Z,95.32
2022-08-26T05:24:56.767Z,95.23
2022-08-26T05:25:59.378Z,95.12
2022-08-26T05:26:56.755Z,95.03
2022-08-26T05:27:56.721Z,94.82
2022-08-26T05:28:56.743Z,94.88
2022-08-26T05:29:56.700Z,94.78
2022-08-26T05:30:56.737Z,94.58
2022-08-26T05:31:56.669Z,94.58
2022-08-26T05:32:56.649Z,94.38
2022-08-26T05:33:56.642Z,94.18
2022-08-26T05:34:56.640Z,94.08
2022-08-26T05:35:56.667Z,94.04
2022-08-26T05:36:56.592Z,93.93
2022-08-26T05:37:56.610Z,93.93
2022-08-26T05:38:56.572Z,93.63
2022-08-26T05:39:56.600Z,93.63
2022-08-26T05:40:56.572Z,93.54
2022-08-26T05:41:56.558Z,93.43
2022-08-26T05:42:56.524Z,93.39
2022-08-26T05:43:56.524Z,93.29
2022-08-26T05:44:56.504Z,93.19
2022-08-26T05:45:56.575Z,93.09
2022-08-26T05:46:56.494Z,92.89
2022-08-26T05:47:56.498Z,92.79
2022-08-26T05:48:56.489Z,92.75
2022-08-26T05:49:56.423Z,92.75
2022-08-26T05:50:56.424Z,92.75
2022-08-26T05:51:56.404Z,92.55
2022-08-26T05:52:56.394Z,92.35
2022-08-26T05:53:56.421Z,92.25
2022-08-26T05:54:56.383Z,92.10
2022-08-26T05:55:56.366Z,91.80
2022-08-26T05:56:56.346Z,91.60
2022-08-26T05:57:56.336Z,91.60
2022-08-26T05:58:56.397Z,91.30
2022-08-26T05:59:56.336Z,91.20
2022-08-26T06:00:56.296Z,91.00
2022-08-26T06:01:56.335Z,90.96
2022-08-26T06:02:56.333Z,90.76
2022-08-26T06:03:56.348Z,90.56
2022-08-26T06:04:56.254Z,90.46
2022-08-26T06:05:56.246Z,90.56
2022-08-26T06:06:56.248Z,90.56
2022-08-26T06:07:56.225Z,90.36
2022-08-26T06:08:56.185Z,90.02
2022-08-26T06:10:15.156Z,90.12
2022-08-26T06:10:57.166Z,90.02
2022-08-26T06:11:56.180Z,89.72
2022-08-26T06:12:57.678Z,89.72
2022-08-26T06:14:00.048Z,89.52
2022-08-26T06:14:57.164Z,89.52
2022-08-26T06:15:56.165Z,89.28
2022-08-26T06:16:56.092Z,89.07
2022-08-26T06:17:56.088Z,89.18
2022-08-26T06:18:56.070Z,89.07
2022-08-26T06:19:56.078Z,89.18
2022-08-26T06:20:57.887Z,88.93
2022-08-26T06:21:56.027Z,88.73
2022-08-26T06:22:56.048Z,88.24
2022-08-26T06:23:55.992Z,88.13
2022-08-26T06:24:55.978Z,88.13
2022-08-26T06:25:55.968Z,88.24
2022-08-26T06:26:55.956Z,87.94
2022-08-26T06:27:55.960Z,87.74
2022-08-26T06:28:55.932Z,87.80
2022-08-26T06:29:55.909Z,87.70
2022-08-26T06:30:55.940Z,87.80
2022-08-26T06:31:56.241Z,87.50
2022-08-26T06:32:55.871Z,87.40
2022-08-26T06:33:55.851Z,87.30
2022-08-26T06:34:55.854Z,87.20
2022-08-26T06:35:55.833Z,87.10
2022-08-26T06:36:55.848Z,87.05
2022-08-26T06:37:55.801Z,86.86
2022-08-26T06:38:55.787Z,86.56
2022-08-26T06:39:55.833Z,86.56
2022-08-26T06:40:55.784Z,86.56
2022-08-26T06:41:55.754Z,86.42
2022-08-26T06:42:55.742Z,86.42
2022-08-26T06:43:55.721Z,86.52
2022-08-26T06:44:55.712Z,86.42
2022-08-26T06:45:55.753Z,86.22
2022-08-26T06:46:55.682Z,85.98
2022-08-26T06:47:55.663Z,86.08
2022-08-26T06:48:55.662Z,85.88
2022-08-26T06:49:55.663Z,85.88
2022-08-26T06:50:55.660Z,85.88
2022-08-26T06:51:55.636Z,85.68
2022-08-26T06:52:55.626Z,85.58
2022-08-26T06:53:55.617Z,85.38
2022-08-26T06:54:55.584Z,85.38
2022-08-26T06:55:55.597Z,85.48
2022-08-26T06:56:55.557Z,85.58
2022-08-26T06:57:55.548Z,85.68
2022-08-26T06:58:55.937Z,85.88
2022-08-26T06:59:55.523Z,85.88
2022-08-26T07:00:58.463Z,85.64
2022-08-26T07:01:56.571Z,85.14
2022-08-26T07:02:55.524Z,85.04
2022-08-26T07:03:57.094Z,84.74
2022-08-26T07:04:56.862Z,84.41
2022-08-26T07:05:55.454Z,84.20
2022-08-26T07:06:55.425Z,84.01
2022-08-26T07:07:55.419Z,83.91
2022-08-26T07:08:55.417Z,83.91
2022-08-26T07:09:55.399Z,83.57
2022-08-26T07:10:55.828Z,83.17
2022-08-26T07:11:55.370Z,82.97
2022-08-26T07:12:55.372Z,83.17
2022-08-26T07:13:55.338Z,83.37
2022-08-26T07:14:55.328Z,83.27
2022-08-26T07:15:57.344Z,83.33
2022-08-26T07:16:55.648Z,83.03
2022-08-26T07:17:55.297Z,83.03
2022-08-26T07:18:55.278Z,82.93
2022-08-26T07:19:55.260Z,82.79
2022-08-26T07:20:55.243Z,82.40
2022-08-26T07:21:55.230Z,82.79
2022-08-26T07:22:55.211Z,82.60
2022-08-26T07:24:00.021Z,82.40
2022-08-26T07:24:56.212Z,82.50
2022-08-26T07:25:55.205Z,82.79
2022-08-26T07:26:55.173Z,82.89
2022-08-26T07:27:55.163Z,82.40
2022-08-26T07:28:55.153Z,82.50
2022-08-26T07:29:55.132Z,82.10
2022-08-26T07:30:55.185Z,82.10
2022-08-26T07:31:55.098Z,82.20
2022-08-26T07:32:55.083Z,82.40
2022-08-26T07:33:55.121Z,82.40
2022-08-26T07:34:55.064Z,82.30
2022-08-26T07:35:55.111Z,82.30
2022-08-26T07:36:55.202Z,82.50
2022-08-26T07:37:57.033Z,82.30
2022-08-26T07:38:55.013Z,82.06
2022-08-26T07:39:55.046Z,81.67
2022-08-26T07:40:55.032Z,81.33
2022-08-26T07:41:54.993Z,81.43
2022-08-26T07:42:54.998Z,80.93
2022-08-26T07:43:54.965Z,80.63
2022-08-26T07:44:55.617Z,80.40
2022-08-26T07:45:54.915Z,79.60
2022-08-26T07:46:54.902Z,79.60
2022-08-26T07:47:54.934Z,79.70
2022-08-26T07:48:54.887Z,79.76
2022-08-26T07:49:54.869Z,79.76
2022-08-26T07:50:54.860Z,79.76
2022-08-26T07:51:54.847Z,79.43
2022-08-26T07:52:54.837Z,79.63
2022-08-26T07:53:54.847Z,78.34
2022-08-26T07:54:54.798Z,77.84
2022-08-26T07:55:54.786Z,78.34
2022-08-26T07:56:54.781Z,78.00
2022-08-26T07:57:54.775Z,78.20
2022-08-26T07:58:54.759Z,78.50
2022-08-26T07:59:55.022Z,78.59
2022-08-26T08:00:54.734Z,77.61
2022-08-26T08:01:54.734Z,77.70
2022-08-26T08:02:54.697Z,77.91
2022-08-26T08:03:54.710Z,77.47
2022-08-26T08:04:54.809Z,77.87
2022-08-26T08:05:54.662Z,77.97
2022-08-26T08:06:54.648Z,76.84
2022-08-26T08:08:26.601Z,76.94
2022-08-26T08:08:55.651Z,76.84
2022-08-26T08:09:54.632Z,75.95
2022-08-26T08:10:54.601Z,76.11
2022-08-26T08:11:54.580Z,75.62
2022-08-26T08:12:54.561Z,75.92
2022-08-26T08:13:56.468Z,75.81
2022-08-26T08:14:54.537Z,75.71
2022-08-26T08:15:54.640Z,75.58
2022-08-26T08:16:54.799Z,74.40
2022-08-26T08:17:55.648Z,74.53
2022-08-26T08:18:54.481Z,74.53
2022-08-26T08:19:54.488Z,75.12
2022-08-26T08:20:59.083Z,74.40
2022-08-26T08:21:55.472Z,74.19
2022-08-26T08:22:54.454Z,74.19
2022-08-26T08:23:54.446Z,74.10
2022-08-26T08:24:54.414Z,73.27
2022-08-26T08:25:54.424Z,73.47
2022-08-26T08:26:54.394Z,73.37
2022-08-26T08:27:54.394Z,73.86
2022-08-26T08:28:54.352Z,73.57
2022-08-26T08:29:55.003Z,72.68
2022-08-26T08:30:54.364Z,71.98
2022-08-26T08:31:56.983Z,72.28
2022-08-26T08:32:54.305Z,72.28
2022-08-26T08:33:54.285Z,72.19
2022-08-26T08:34:54.282Z,72.48
2022-08-26T08:35:54.347Z,72.88
2022-08-26T08:36:54.389Z,71.89
2022-08-26T08:37:54.269Z,72.34
2022-08-26T08:38:54.237Z,72.25
2022-08-26T08:39:54.256Z,71.75
2022-08-26T08:40:54.208Z,71.95
2022-08-26T08:41:54.198Z,70.08
2022-08-26T08:42:54.199Z,70.28
2022-08-26T08:43:54.166Z,70.77
2022-08-26T08:44:54.147Z,70.97
2022-08-26T08:45:54.158Z,70.47
2022-08-26T08:46:54.188Z,70.47
2022-08-26T08:47:54.799Z,70.18
2022-08-26T08:48:54.108Z,70.47
2022-08-26T08:49:54.108Z,70.37
2022-08-26T08:50:54.129Z,70.18
2022-08-26T08:51:54.058Z,69.26
2022-08-26T08:52:54.055Z,70.14
2022-08-26T08:53:54.661Z,69.06
2022-08-26T08:54:54.019Z,69.06
2022-08-26T08:55:54.017Z,68.96
2022-08-26T08:56:54.009Z,69.71
2022-08-26T08:57:54.022Z,68.93
2022-08-26T08:58:56.898Z,68.43
2022-08-26T08:59:54.004Z,67.94
2022-08-26T09:00:54.069Z,68.13
2022-08-26T09:01:54.226Z,67.94
2022-08-26T09:02:53.932Z,68.89
2022-08-26T09:03:53.932Z,68.50
2022-08-26T09:04:53.928Z,68.50
2022-08-26T09:05:53.923Z,68.40
2022-08-26T09:06:53.925Z,68.20
2022-08-26T09:07:53.900Z,68.30
2022-08-26T09:08:53.850Z,68.07
2022-08-26T09:09:53.832Z,67.68
2022-08-26T09:10:53.891Z,67.38
2022-08-26T09:11:53.815Z,67.77
2022-08-26T09:12:53.784Z,67.87
2022-08-26T09:13:53.774Z,67.55
2022-08-26T09:14:53.764Z,67.32
2022-08-26T09:15:53.756Z,66.53
2022-08-26T09:16:53.864Z,66.53
2022-08-26T09:17:53.745Z,65.45
2022-08-26T09:18:53.716Z,65.74
2022-08-26T09:19:53.705Z,65.55
2022-08-26T09:20:53.706Z,65.84
2022-08-26T09:21:53.688Z,65.25
2022-08-26T09:22:53.746Z,64.86
2022-08-26T09:23:53.646Z,64.36
2022-08-26T09:24:53.635Z,64.76
2022-08-26T09:26:53.605Z,65.35
2022-08-26T09:27:53.636Z,65.05
2022-08-26T09:28:53.585Z,64.95
2022-08-26T09:30:00.591Z,65.25
2022-08-26T09:30:53.600Z,65.64
2022-08-26T09:31:53.543Z,65.45
2022-08-26T09:32:56.001Z,64.92
2022-08-26T09:33:53.542Z,64.04
2022-08-26T09:34:53.504Z,64.62
2022-08-26T09:35:53.512Z,64.53
2022-08-26T09:36:53.485Z,64.69
2022-08-26T09:37:53.510Z,63.81
2022-08-26T09:38:53.453Z,62.85
2022-08-26T09:39:53.457Z,62.76
2022-08-26T09:40:59.122Z,62.46
2022-08-26T09:41:54.412Z,62.82
2022-08-26T09:42:53.403Z,62.82
2022-08-26T09:43:53.402Z,63.19
2022-08-26T09:44:53.415Z,62.50
2022-08-26T09:45:55.909Z,62.30
2022-08-26T09:46:54.372Z,61.13
2022-08-26T09:47:53.346Z,61.81
2022-08-26T09:48:53.346Z,62.96
2022-08-26T09:49:53.317Z,62.57
2022-08-26T09:50:53.447Z,62.18
2022-08-26T09:51:53.288Z,62.18
2022-08-26T09:52:53.279Z,61.68
2022-08-26T09:53:53.256Z,61.00
2022-08-26T09:54:53.247Z,61.10
2022-08-26T09:55:53.228Z,61.49
2022-08-26T09:56:53.248Z,61.88
2022-08-26T09:57:53.207Z,60.60
2022-08-26T09:58:53.236Z,60.70
2022-08-26T09:59:53.178Z,61.49
2022-08-26T10:00:53.240Z,61.78
2022-08-26T10:01:53.322Z,61.78
2022-08-26T10:02:56.032Z,61.10
2022-08-26T10:03:53.187Z,61.39
2022-08-26T10:04:53.121Z,61.78
2022-08-26T10:05:53.110Z,62.37
2022-08-26T10:06:53.092Z,61.88
2022-08-26T10:07:53.091Z,62.27
2022-08-26T10:08:53.096Z,62.05
2022-08-26T10:09:53.050Z,62.24
2022-08-26T10:10:53.561Z,61.76
2022-08-26T10:11:53.031Z,62.24
2022-08-26T10:12:53.021Z,61.85
2022-08-26T10:13:53.031Z,60.84
2022-08-26T10:14:53.016Z,61.23
2022-08-26T10:15:53.002Z,59.76
2022-08-26T10:16:53.180Z,60.25
2022-08-26T10:17:52.954Z,60.55
2022-08-26T10:18:56.761Z,60.45
2022-08-26T10:19:56.910Z,61.13
2022-08-26T10:20:52.915Z,60.45
2022-08-26T10:21:53.101Z,60.15
2022-08-26T10:22:52.895Z,60.25
2022-08-26T10:23:52.890Z,60.03
2022-08-26T10:24:55.118Z,60.45
2022-08-26T10:25:52.850Z,60.15
2022-08-26T10:26:52.867Z,59.37
2022-08-26T10:27:53.775Z,59.66
2022-08-26T10:28:52.824Z,59.47
2022-08-26T10:29:52.795Z,60.64
2022-08-26T10:30:52.794Z,60.25
2022-08-26T10:31:52.819Z,59.56
2022-08-26T10:32:52.756Z,60.94
2022-08-26T10:33:58.015Z,60.45
2022-08-26T10:34:53.749Z,60.25
2022-08-26T10:35:52.793Z,60.35
2022-08-26T10:37:14.369Z,61.33
2022-08-26T10:37:53.719Z,61.26
2022-08-26T10:38:52.702Z,60.97
2022-08-26T10:39:56.887Z,61.16
2022-08-26T10:40:53.699Z,61.95
2022-08-26T10:41:52.666Z,60.97
2022-08-26T10:42:52.630Z,61.10
2022-08-26T10:43:52.619Z,61.88
2022-08-26T10:44:52.658Z,62.47
2022-08-26T10:45:52.626Z,61.58
2022-08-26T10:46:52.589Z,61.71
2022-08-26T10:47:52.571Z,61.32
2022-08-26T10:48:52.568Z,61.42
2022-08-26T10:49:52.552Z,61.32
2022-08-26T10:50:52.582Z,61.42
2022-08-26T10:51:52.551Z,61.52
2022-08-26T10:52:52.542Z,61.42
2022-08-26T10:53:52.498Z,61.52
2022-08-26T10:54:52.511Z,61.71
2022-08-26T10:55:52.561Z,61.25
2022-08-26T10:56:52.472Z,62.24
2022-08-26T10:57:52.463Z,62.90
2022-08-26T10:58:52.452Z,62.50
2022-08-26T10:59:52.424Z,62.11
2022-08-26T11:00:52.468Z,62.40
2022-08-26T11:01:52.714Z,62.70
2022-08-26T11:02:52.395Z,62.60
2022-08-26T11:03:52.420Z,62.40
2022-08-26T11:04:52.395Z,62.11
2022-08-26T11:05:52.344Z,62.01
2022-08-26T11:06:52.354Z,61.91
2022-08-26T11:07:52.325Z,62.11
2022-08-26T11:08:52.306Z,62.60
2022-08-26T11:09:52.304Z,62.11
2022-08-26T11:10:52.286Z,63.09
2022-08-26T11:11:52.286Z,62.57
2022-08-26T11:12:52.266Z,63.06
2022-08-26T11:13:52.250Z,62.18
2022-08-26T11:14:56.155Z,62.18
2022-08-26T11:15:53.240Z,62.37
2022-08-26T11:16:52.259Z,61.42
2022-08-26T11:17:52.197Z,61.03
2022-08-26T11:18:52.209Z,61.52
2022-08-26T11:20:00.804Z,62.40
2022-08-26T11:20:53.158Z,62.60
2022-08-26T11:21:52.160Z,62.30
2022-08-26T11:22:52.168Z,62.50
2022-08-26T11:23:53.000Z,62.70
2022-08-26T11:24:52.107Z,63.19
2022-08-26T11:25:52.089Z,63.29
2022-08-26T11:26:55.962Z,62.99
2022-08-26T11:27:52.070Z,63.71
2022-08-26T11:28:52.050Z,63.68
2022-08-26T11:29:52.064Z,63.71
2022-08-26T11:30:57.517Z,63.51
2022-08-26T11:31:53.099Z,63.02
2022-08-26T11:32:52.034Z,63.81
2022-08-26T11:33:51.996Z,62.93
2022-08-26T11:34:51.983Z,63.81
2022-08-26T11:35:52.222Z,63.71
2022-08-26T11:36:51.954Z,64.01
2022-08-26T11:37:51.932Z,63.81
2022-08-26T11:38:51.931Z,63.71
2022-08-26T11:39:55.128Z,64.40
2022-08-26T11:40:51.893Z,64.20
2022-08-26T11:41:52.683Z,64.69
2022-08-26T11:42:51.874Z,65.38
2022-08-26T11:43:51.854Z,65.52
2022-08-26T11:44:51.854Z,65.12
2022-08-26T11:45:51.908Z,64.92
2022-08-26T11:46:51.833Z,64.62
2022-08-26T11:47:51.816Z,64.17
2022-08-26T11:48:51.793Z,63.87
2022-08-26T11:49:51.784Z,64.36
2022-08-26T11:50:51.782Z,63.97
2022-08-26T11:51:51.769Z,63.87
2022-08-26T11:52:51.755Z,64.36
2022-08-26T11:53:51.747Z,64.86
2022-08-26T11:54:51.754Z,64.17
2022-08-26T11:55:51.705Z,64.49
2022-08-26T11:56:51.696Z,64.98
2022-08-26T11:57:51.732Z,65.58
2022-08-26T11:58:51.677Z,64.89
2022-08-26T11:59:51.701Z,66.07
2022-08-26T12:00:51.648Z,65.67
2022-08-26T12:01:51.618Z,65.77
2022-08-26T12:02:52.463Z,66.46
2022-08-26T12:03:51.731Z,66.46
2022-08-26T12:04:51.587Z,66.66
2022-08-26T12:05:51.588Z,66.27
2022-08-26T12:06:51.566Z,65.77
2022-08-26T12:07:51.549Z,65.48
2022-08-26T12:08:51.549Z,65.51
2022-08-26T12:09:51.532Z,65.11
2022-08-26T12:10:51.531Z,65.22
2022-08-26T12:11:51.510Z,65.41
2022-08-26T12:12:51.502Z,65.22
2022-08-26T12:13:51.542Z,65.61
2022-08-26T12:14:51.482Z,65.61
2022-08-26T12:15:51.479Z,64.62
2022-08-26T12:16:51.524Z,64.92
2022-08-26T12:17:54.441Z,64.03
2022-08-26T12:18:51.411Z,64.42
2022-08-26T12:19:51.393Z,64.32
2022-08-26T12:20:51.401Z,64.23
2022-08-26T12:21:51.374Z,64.36
2022-08-26T12:22:51.362Z,64.16
2022-08-26T12:23:51.357Z,64.16
2022-08-26T12:24:51.355Z,64.65
2022-08-26T12:25:51.344Z,65.34
2022-08-26T12:26:51.335Z,67.25
2022-08-26T12:27:53.693Z,68.37
2022-08-26T12:28:51.316Z,69.19
2022-08-26T12:29:51.279Z,70.34
2022-08-26T12:30:51.275Z,71.17
2022-08-26T12:31:51.327Z,72.16
2022-08-26T12:32:58.153Z,72.69
2022-08-26T12:33:52.264Z,73.41
2022-08-26T12:34:51.252Z,73.61
2022-08-26T12:35:54.790Z,68.33
2022-08-26T12:36:52.237Z,66.91
2022-08-26T12:37:51.204Z,66.98
2022-08-26T12:38:51.196Z,67.50
2022-08-26T12:39:51.231Z,68.43
2022-08-26T12:40:51.171Z,68.53
2022-08-26T12:41:51.152Z,68.37
2022-08-26T12:42:51.157Z,68.99
2022-08-26T12:43:51.125Z,69.49
2022-08-26T12:44:54.019Z,69.82
2022-08-26T12:45:51.134Z,70.12
2022-08-26T12:46:51.086Z,70.12
2022-08-26T12:47:51.078Z,70.45
2022-08-26T12:48:51.067Z,70.65
2022-08-26T12:49:51.045Z,70.95
2022-08-26T12:50:51.045Z,71.39
2022-08-26T12:51:51.085Z,71.69
2022-08-26T12:52:51.014Z,71.98